Weather History for Alva, OK

Change the Weather History Date:

Tuesday, March 11, 2014

  Actual Average Record
Temperature  
Mean Temperature 54 °F -  
Max Temperature 68 °F 62 °F 89 °F (1967)
Min Temperature 41 °F 37 °F -5 °F (1948)
Degree Days  
Heating Degree Days 10    
Growing Degree Days 4 (Base 50)    
Moisture  
Dew Point 36 °F    
Average Humidity 56    
Maximum Humidity 87    
Minimum Humidity 23    
Precipitation  
Precipitation 0.00 in - - ()
Sea Level Pressure  
Sea Level Pressure 29.65 in    
Wind  
Wind Speed 18 mph (West)    
Max Wind Speed 37 mph    
Max Gust Speed 53 mph    
Visibility 10 miles    
Events      
Averages and records for this station are not official NWS values.
T = Trace of Precipitation, MM = Missing Value Source: NWS Daily Summary

Daily Weather History Graph

Daily Weather History Graph

Search for Another Location

Airport:

Trip Planner

Search our weather history database for the weather conditions in past years. The results will help you decide how hot, cold, wet, or windy it might be!

Date:

Astronomy

Mar. 11, 2014 Rise Set
Actual Time 7:51 AM CDT 7:38 PM CDT
Civil Twilight 7:25 AM CDT 8:04 PM CDT
Nautical Twilight 6:55 AM CDT 8:34 PM CDT
Astronomical Twilight 6:25 AM CDT 9:04 PM CDT
Moon 3:21 PM CDT (3/11) 4:40 AM CDT (3/11)
Length of Visible Light 12h 38m
Length of Day
11h 47m
Waxing Gibbous, 78% of the Moon is Illuminated
Mar 11
Waxing Gibbous
Mar 16
Full
Mar 23
Last Quarter
Mar 30
New
Apr 7
First Quarter

Hourly Weather History & Observations

Time (CDT) Temp. Windchill Dew Point Humidity Pressure Visibility Wind Dir Wind Speed Gust Speed Precip Events Conditions
12:10 AM 46.4 °F 41.1 °F 32.0 °F 57% 29.67 in 10.0 mi South 11.5 mph - N/A   Partly Cloudy
12:30 AM 44.6 °F 38.4 °F 32.0 °F 61% 29.67 in 10.0 mi South 12.7 mph - N/A   Partly Cloudy
12:50 AM 44.6 °F 38.8 °F 32.0 °F 61% 29.65 in 10.0 mi South 11.5 mph - N/A   Clear
1:10 AM 44.6 °F 38.4 °F 32.0 °F 61% 29.64 in 10.0 mi South 12.7 mph - N/A   Clear
1:30 AM 44.6 °F 38.4 °F 32.0 °F 61% 29.63 in 10.0 mi South 12.7 mph - N/A   Clear
1:50 AM 44.6 °F 38.1 °F 32.0 °F 61% 29.62 in 10.0 mi South 13.8 mph - N/A   Clear
2:10 AM 46.4 °F 41.1 °F 32.0 °F 57% 29.61 in 10.0 mi South 11.5 mph - N/A   Clear
2:30 AM 44.6 °F 38.1 °F 33.8 °F 66% 29.60 in 10.0 mi South 13.8 mph - N/A   Clear
2:50 AM 44.6 °F 37.8 °F 33.8 °F 66% 29.60 in 10.0 mi South 15.0 mph - N/A   Clear
3:10 AM 46.4 °F 40.1 °F 37.4 °F 71% 29.58 in 10.0 mi South 15.0 mph - N/A   Clear
3:30 AM 48.2 °F - 37.4 °F 66% 29.57 in 10.0 mi South 13.8 mph - N/A   Clear
3:50 AM 51.8 °F - 39.2 °F 62% 29.56 in 10.0 mi South 12.7 mph - N/A   Clear
4:10 AM 53.6 °F - 39.2 °F 58% 29.54 in 10.0 mi South 13.8 mph - N/A   Clear
4:30 AM 51.8 °F - 41.0 °F 67% 29.53 in 10.0 mi South 13.8 mph - N/A   Clear
4:50 AM 50.0 °F - 41.0 °F 71% 29.53 in 10.0 mi SSW 11.5 mph - N/A   Clear
5:10 AM 51.8 °F - 41.0 °F 67% 29.52 in 10.0 mi SSW 13.8 mph - N/A   Clear
5:30 AM 53.6 °F - 42.8 °F 67% 29.51 in 10.0 mi SSW 16.1 mph - N/A   Clear
5:50 AM 53.6 °F - 42.8 °F 67% 29.51 in 10.0 mi SSW 15.0 mph - N/A   Clear
6:10 AM 53.6 °F - 44.6 °F 72% 29.50 in 10.0 mi SSW 16.1 mph - N/A   Clear
6:30 AM 50.0 °F - 44.6 °F 82% 29.49 in 10.0 mi SSW 15.0 mph - N/A   Clear
6:50 AM 50.0 °F - 44.6 °F 82% 29.50 in 10.0 mi SSW 13.8 mph - N/A   Clear
7:10 AM 46.4 °F 42.4 °F 41.0 °F 81% 29.49 in 10.0 mi SSW 8.1 mph - N/A   Clear
7:30 AM 48.2 °F - 42.8 °F 82% 29.49 in 10.0 mi SSW 10.4 mph - N/A   Clear
7:55 AM 48.2 °F - 44.6 °F 87% 29.47 in 10.0 mi South 12.7 mph - N/A   Clear
8:10 AM 50.0 °F - 44.6 °F 82% 29.47 in 10.0 mi South 12.7 mph - N/A   Clear
8:30 AM 50.0 °F - 44.6 °F 82% 29.47 in 10.0 mi South 12.7 mph - N/A   Clear
8:50 AM 53.6 °F - 46.4 °F 77% 29.46 in 10.0 mi South 13.8 mph - N/A   Clear
9:10 AM 55.4 °F - 46.4 °F 72% 29.46 in 10.0 mi SSW 16.1 mph 20.7 mph N/A   Clear
9:30 AM 57.2 °F - 46.4 °F 67% 29.47 in 10.0 mi SSW 18.4 mph 24.2 mph N/A   Clear
9:50 AM 59.0 °F - 46.4 °F 63% 29.46 in 10.0 mi SSW 21.9 mph 28.8 mph N/A   Clear
10:10 AM 59.0 °F - 46.4 °F 63% 29.45 in 10.0 mi SW 19.6 mph 25.3 mph N/A   Clear
10:30 AM 62.6 °F - 44.6 °F 52% 29.45 in 10.0 mi SW 18.4 mph 24.2 mph N/A   Clear
10:55 AM 62.6 °F - 41.0 °F 45% 29.45 in 10.0 mi SW 23.0 mph 27.6 mph N/A   Clear
11:10 AM 62.6 °F - 41.0 °F 45% 29.45 in 10.0 mi SW 15.0 mph 24.2 mph N/A   Clear
11:30 AM 64.4 °F - 37.4 °F 37% 29.45 in 10.0 mi WSW 19.6 mph 27.6 mph N/A   Clear
11:55 AM 66.2 °F - 28.4 °F 24% 29.46 in 10.0 mi West 19.6 mph - N/A   Clear
12:10 PM 66.2 °F - 28.4 °F 24% 29.46 in 10.0 mi West 12.7 mph 18.4 mph N/A   Clear
12:30 PM 66.2 °F - 30.2 °F 26% 29.46 in 10.0 mi WNW 12.7 mph 19.6 mph N/A   Clear
12:50 PM 66.2 °F - 28.4 °F 24% 29.47 in 10.0 mi NW 16.1 mph 25.3 mph N/A   Clear
1:10 PM 66.2 °F - 28.4 °F 24% 29.48 in 10.0 mi NNW 21.9 mph 31.1 mph N/A   Clear
1:30 PM 68.0 °F - 28.4 °F 23% 29.49 in 10.0 mi NNW 26.5 mph 33.4 mph N/A   Clear
1:50 PM 68.0 °F - 30.2 °F 24% 29.50 in 10.0 mi NNW 24.2 mph 34.5 mph N/A   Clear
2:10 PM 66.2 °F - 32.0 °F 28% 29.52 in 10.0 mi NNW 29.9 mph 40.3 mph N/A   Clear
2:30 PM 64.4 °F - 37.4 °F 37% 29.54 in 10.0 mi NNW 34.5 mph 41.4 mph N/A   Clear
2:50 PM 62.6 °F - 37.4 °F 39% 29.57 in 10.0 mi NNW 34.5 mph 43.7 mph N/A   Clear
3:15 PM 60.8 °F - 35.6 °F 39% 29.59 in 9.0 mi North 24.2 mph 40.3 mph N/A   Clear
3:30 PM 62.6 °F - 35.6 °F 37% 29.59 in 10.0 mi NNW 25.3 mph 40.3 mph N/A   Clear
3:55 PM 60.8 °F - 35.6 °F 39% 29.61 in 9.0 mi NNW 33.4 mph 44.9 mph N/A   Clear
4:10 PM 59.0 °F - 33.8 °F 39% 29.63 in 9.0 mi North 34.5 mph 47.2 mph N/A   Clear
4:30 PM 59.0 °F - 33.8 °F 39% 29.64 in 8.0 mi North 27.6 mph 41.4 mph N/A   Clear
4:50 PM 57.2 °F - 33.8 °F 41% 29.66 in 6.0 mi North 35.7 mph 43.7 mph N/A   Haze
5:10 PM 57.2 °F - 33.8 °F 41% 29.68 in 7.0 mi North 28.8 mph 43.7 mph N/A   Clear
5:30 PM 55.4 °F - 33.8 °F 44% 29.71 in 6.0 mi NNW 29.9 mph 44.9 mph N/A   Haze
5:50 PM 53.6 °F - 33.8 °F 47% 29.74 in 8.0 mi North 29.9 mph 42.6 mph N/A   Partly Cloudy
6:10 PM 51.8 °F - 32.0 °F 47% 29.76 in 7.0 mi North 35.7 mph 52.9 mph N/A   Partly Cloudy
6:30 PM 50.0 °F - 32.0 °F 50% 29.78 in 7.0 mi North 32.2 mph 47.2 mph N/A   Scattered Clouds
6:50 PM 50.0 °F - 32.0 °F 50% 29.81 in 7.0 mi North 33.4 mph 44.9 mph N/A   Mostly Cloudy
7:10 PM 48.2 °F - 32.0 °F 54% 29.82 in 9.0 mi North 28.8 mph 44.9 mph N/A   Overcast
7:30 PM 48.2 °F - 32.0 °F 54% 29.86 in 10.0 mi North 33.4 mph 49.5 mph N/A   Overcast
7:50 PM 48.2 °F - 32.0 °F 54% 29.88 in 10.0 mi North 33.4 mph 43.7 mph N/A   Overcast
8:10 PM 48.2 °F - 32.0 °F 54% 29.89 in 10.0 mi North 36.8 mph 46.0 mph N/A   Overcast
8:35 PM 48.2 °F - 32.0 °F 54% 29.92 in 10.0 mi North 26.5 mph 42.6 mph N/A   Overcast
8:50 PM 46.4 °F 36.3 °F 32.0 °F 57% 29.94 in 10.0 mi North 36.8 mph 44.9 mph N/A   Overcast
9:10 PM 46.4 °F 37.0 °F 32.0 °F 57% 29.97 in 10.0 mi North 31.1 mph 42.6 mph N/A   Overcast
9:30 PM 44.6 °F 35.3 °F 32.0 °F 61% 30.00 in 10.0 mi North 26.5 mph 42.6 mph N/A   Overcast
9:50 PM 44.6 °F 36.1 °F 32.0 °F 61% 30.03 in 10.0 mi North 21.9 mph 34.5 mph N/A   Overcast
10:10 PM 42.8 °F 31.8 °F 32.0 °F 66% 30.05 in 10.0 mi North 33.4 mph 48.3 mph N/A   Overcast
10:35 PM 41.0 °F 30.2 °F 32.0 °F 70% 30.07 in 10.0 mi North 27.6 mph 44.9 mph N/A   Overcast
10:50 PM 41.0 °F 29.3 °F 32.0 °F 70% 30.08 in 10.0 mi North 33.4 mph 50.6 mph N/A   Overcast
11:10 PM 41.0 °F 29.1 °F 32.0 °F 70% 30.11 in 10.0 mi North 34.5 mph 43.7 mph N/A   Overcast
11:30 PM 41.0 °F 28.8 °F 30.2 °F 65% 30.13 in 10.0 mi North 36.8 mph 52.9 mph N/A   Overcast
11:50 PM 41.0 °F 30.2 °F 30.2 °F 65% 30.15 in 10.0 mi North 27.6 mph 43.7 mph N/A   Overcast